Time;durP1;ratioP1;P1;durP2;ratioP2;P2;SDS_P1;SDS_P2;PMS_P1;PMS_P2;Temp;Humidity;BMP_temperature;BMP_pressure;BME280_temperature;BME280_humidity;BME280_pressure;Samples;Min_cycle;Max_cycle;Signal;HPM_P1;HPM_P2
2022/08/19 00:01:49;;;;;;;11.05;6.75;;;18.60;99.90;;;;;;5043364;28;20231;-65
2022/08/19 00:04:18;;;;;;;9.25;7.68;;;18.60;99.90;;;;;;5058319;28;20219;-64
2022/08/19 00:06:47;;;;;;;12.65;7.25;;;18.60;99.90;;;;;;5053285;28;20224;-65
2022/08/19 00:09:15;;;;;;;8.82;6.72;;;;;;;;;;5047437;28;21142;-65
2022/08/19 00:11:43;;;;;;;12.32;7.15;;;18.70;99.90;;;;;;5058391;28;20223;-65
2022/08/19 00:14:13;;;;;;;9.25;6.50;;;18.70;99.90;;;;;;5035396;28;21102;-65
2022/08/19 00:16:42;;;;;;;10.30;6.95;;;18.80;99.90;;;;;;5069437;28;20204;-65
2022/08/19 00:19:10;;;;;;;7.97;6.25;;;18.80;99.90;;;;;;5044962;28;20242;-65
2022/08/19 00:21:39;;;;;;;9.75;6.20;;;18.90;99.90;;;;;;5068323;28;20192;-64
2022/08/19 00:24:06;;;;;;;10.65;6.72;;;18.70;99.90;;;;;;5044605;28;20199;-65
2022/08/19 00:26:33;;;;;;;8.38;6.00;;;18.70;99.90;;;;;;5058009;28;20211;-64
2022/08/19 00:29:00;;;;;;;11.88;6.78;;;18.80;99.90;;;;;;5036529;28;20216;-65
2022/08/19 00:31:28;;;;;;;16.38;7.13;;;18.80;99.90;;;;;;5063249;28;20200;-62
2022/08/19 00:33:56;;;;;;;9.55;6.60;;;18.60;99.90;;;;;;5053076;28;20716;-62
2022/08/19 00:36:23;;;;;;;11.02;6.40;;;18.80;99.50;;;;;;5070207;28;20200;-63
2022/08/19 00:38:51;;;;;;;9.05;6.55;;;;;;;;;;5044904;28;20227;-63
2022/08/19 00:41:21;;;;;;;11.80;6.30;;;18.80;99.90;;;;;;5059046;28;20200;-62
2022/08/19 00:43:59;;;;;;;9.95;6.18;;;18.80;99.80;;;;;;5073078;28;20876;-62
2022/08/19 00:46:26;;;;;;;8.95;6.38;;;18.80;99.30;;;;;;5052548;28;20223;-62
2022/08/19 00:48:54;;;;;;;11.77;6.10;;;18.80;98.90;;;;;;5066245;28;20208;-62
2022/08/19 00:51:23;;;;;;;8.60;6.63;;;18.70;99.90;;;;;;5066839;28;20902;-63
2022/08/19 00:53:50;;;;;;;7.72;6.82;;;18.30;99.90;;;;;;5046384;28;20208;-63
2022/08/19 00:56:17;;;;;;;10.60;7.15;;;18.70;99.90;;;;;;5071420;28;20239;-62
2022/08/19 00:58:44;;;;;;;9.70;6.93;;;18.80;99.10;;;;;;5056615;28;20273;-63
2022/08/19 01:01:11;;;;;;;13.10;6.30;;;18.80;99.30;;;;;;5049249;28;20211;-62
2022/08/19 01:03:38;;;;;;;10.57;6.53;;;18.80;99.30;;;;;;5067915;28;20196;-62
2022/08/19 01:06:06;;;;;;;6.93;6.10;;;18.80;99.70;;;;;;5062660;28;20196;-63
2022/08/19 01:08:35;;;;;;;14.15;6.85;;;19.20;99.90;;;;;;5066000;28;20287;-63
2022/08/19 01:11:02;;;;;;;11.85;6.55;;;18.80;99.90;;;;;;5064780;28;20200;-63
2022/08/19 01:13:33;;;;;;;11.55;6.55;;;18.80;99.90;;;;;;5057896;28;20212;-62
2022/08/19 01:16:03;;;;;;;8.60;6.65;;;18.90;99.80;;;;;;5049485;28;20192;-63
2022/08/19 01:18:31;;;;;;;10.30;6.65;;;18.80;99.00;;;;;;5071209;28;20293;-63
2022/08/19 01:21:03;;;;;;;9.52;6.47;;;18.80;98.80;;;;;;5059497;28;20213;-63
2022/08/19 01:23:43;;;;;;;7.82;6.50;;;18.80;98.70;;;;;;5071404;28;20197;-63
2022/08/19 01:26:11;;;;;;;9.05;7.05;;;18.80;99.90;;;;;;5034119;28;20208;-64
2022/08/19 01:28:38;;;;;;;13.32;7.95;;;18.60;98.80;;;;;;5059517;28;20254;-63
2022/08/19 01:31:06;;;;;;;11.48;7.43;;;18.70;99.90;;;;;;5031613;28;20200;-64
2022/08/19 01:33:33;;;;;;;8.48;7.03;;;18.60;99.80;;;;;;5064789;28;21026;-63
2022/08/19 01:36:06;;;;;;;9.65;6.75;;;18.70;99.30;;;;;;5057102;28;20207;-63
2022/08/19 01:38:37;;;;;;;10.60;6.90;;;18.80;99.60;;;;;;5065580;28;20225;-63
2022/08/19 01:41:04;;;;;;;8.93;7.32;;;18.50;99.90;;;;;;5052175;28;20219;-63
2022/08/19 01:43:31;;;;;;;9.35;7.20;;;18.70;99.40;;;;;;5055445;28;20212;-63
2022/08/19 01:45:58;;;;;;;11.73;7.40;;;20.40;99.90;;;;;;5058878;28;20267;-64
2022/08/19 01:48:25;;;;;;;10.43;7.20;;;;;;;;;;5040687;28;21268;-64
2022/08/19 01:50:52;;;;;;;8.43;7.22;;;18.70;99.10;;;;;;5056566;28;20208;-63
2022/08/19 01:53:19;;;;;;;8.90;6.95;;;18.80;99.90;;;;;;5068056;28;20211;-63
2022/08/19 01:55:48;;;;;;;10.52;7.47;;;18.60;99.90;;;;;;5056619;28;20215;-63
2022/08/19 01:58:20;;;;;;;9.50;8.52;;;18.40;99.90;;;;;;5062983;28;20216;-63
2022/08/19 02:00:47;;;;;;;14.10;8.23;;;18.60;99.90;;;;;;5057074;28;20204;-63
2022/08/19 02:03:14;;;;;;;11.10;7.78;;;18.50;99.90;;;;;;5042246;28;20212;-64
2022/08/19 02:05:42;;;;;;;10.38;7.72;;;18.20;99.90;;;;;;5055088;28;20697;-64
2022/08/19 02:08:10;;;;;;;9.15;7.57;;;18.60;99.90;;;;;;5063918;28;20204;-64
2022/08/19 02:10:40;;;;;;;9.95;7.68;;;18.70;99.90;;;;;;5064455;28;20291;-64
2022/08/19 02:13:08;;;;;;;10.88;7.97;;;18.60;99.90;;;;;;5053416;28;20329;-63
2022/08/19 02:15:35;;;;;;;11.88;7.30;;;18.60;99.90;;;;;;5055160;28;20196;-64
2022/08/19 02:18:02;;;;;;;8.98;7.45;;;18.60;99.50;;;;;;5043196;28;20224;-64
2022/08/19 02:20:29;;;;;;;11.20;7.60;;;18.60;99.10;;;;;;5065780;28;20205;-64
2022/08/19 02:22:56;;;;;;;11.75;7.07;;;18.60;99.20;;;;;;5042907;28;20196;-64
2022/08/19 02:25:23;;;;;;;10.57;7.18;;;18.60;98.60;;;;;;5060996;28;20564;-64
2022/08/19 02:27:50;;;;;;;9.95;6.80;;;;;;;;;;5055996;28;20212;-64
2022/08/19 02:30:18;;;;;;;9.05;7.18;;;18.60;98.00;;;;;;5043919;28;20207;-64
2022/08/19 02:32:45;;;;;;;9.18;7.13;;;18.30;98.50;;;;;;5065067;28;20200;-63
2022/08/19 02:35:14;;;;;;;10.57;6.65;;;18.50;97.90;;;;;;5040191;28;20216;-64
2022/08/19 02:40:25;;;;;;;8.25;6.82;;;18.50;98.10;;;;;;5068436;28;20205;-64
2022/08/19 02:42:52;;;;;;;9.10;7.15;;;18.50;98.10;;;;;;5054671;28;20208;-64
2022/08/19 02:45:20;;;;;;;8.63;6.57;;;18.50;97.40;;;;;;5046776;28;20684;-64
2022/08/19 02:47:47;;;;;;;11.60;7.30;;;18.50;97.30;;;;;;5063800;28;20772;-64
2022/08/19 02:50:14;;;;;;;8.48;7.05;;;18.50;98.90;;;;;;5033141;28;20209;-64
2022/08/19 02:52:41;;;;;;;9.73;6.75;;;18.50;98.10;;;;;;5055233;28;20252;-64
2022/08/19 02:55:09;;;;;;;6.68;6.03;;;18.20;98.90;;;;;;5069227;28;20215;-63
2022/08/19 02:57:36;;;;;;;8.82;7.05;;;18.50;98.00;;;;;;5056727;28;20196;-64
2022/08/19 03:00:07;;;;;;;10.90;7.53;;;18.50;98.50;;;;;;5052738;28;20223;-64
2022/08/19 03:02:35;;;;;;;8.43;6.95;;;18.50;98.20;;;;;;5045118;28;20291;-64
2022/08/19 03:05:03;;;;;;;8.52;6.65;;;19.50;99.40;;;;;;5043067;28;20200;-64
2022/08/19 03:07:30;;;;;;;9.15;7.32;;;18.50;98.00;;;;;;5065635;28;20204;-64
2022/08/19 03:09:57;;;;;;;7.78;6.68;;;18.30;96.70;;;;;;5054973;28;20212;-64
2022/08/19 03:12:24;;;;;;;9.02;7.20;;;18.50;98.30;;;;;;5058411;28;20788;-64
2022/08/19 03:14:52;;;;;;;9.52;7.00;;;18.30;97.30;;;;;;5053453;28;20219;-64
2022/08/19 03:17:19;;;;;;;12.95;7.07;;;18.30;97.10;;;;;;5053690;28;21430;-64
2022/08/19 03:19:47;;;;;;;9.80;6.63;;;17.90;98.10;;;;;;5053776;28;20231;-63
2022/08/19 03:22:14;;;;;;;9.63;6.35;;;18.20;96.90;;;;;;5039929;28;20204;-64
2022/08/19 03:24:40;;;;;;;9.88;6.95;;;18.20;97.90;;;;;;5051365;28;20207;-63
2022/08/19 03:27:08;;;;;;;9.52;6.88;;;;;;;;;;5056333;28;20208;-64
2022/08/19 03:29:39;;;;;;;9.55;6.75;;;18.20;96.90;;;;;;5064394;28;20189;-64
2022/08/19 03:32:06;;;;;;;7.53;6.78;;;18.20;96.40;;;;;;5042707;28;20200;-64
2022/08/19 03:34:35;;;;;;;8.73;6.82;;;18.10;96.80;;;;;;5066149;28;20196;-64
2022/08/19 03:37:08;;;;;;;8.57;7.03;;;17.80;98.60;;;;;;5038985;28;20211;-64
2022/08/19 03:39:37;;;;;;;10.57;7.35;;;18.10;96.70;;;;;;5036435;28;20231;-64
2022/08/19 03:42:05;;;;;;;7.35;6.55;;;17.60;98.70;;;;;;5052473;28;21000;-64
2022/08/19 03:44:33;;;;;;;9.65;7.72;;;17.90;96.90;;;;;;5060494;28;20204;-64
2022/08/19 03:47:00;;;;;;;11.98;7.72;;;17.90;98.40;;;;;;5043476;28;20227;-64
2022/08/19 03:49:29;;;;;;;9.75;7.45;;;17.80;97.50;;;;;;5060216;28;20200;-64
2022/08/19 03:52:00;;;;;;;12.75;7.65;;;17.80;98.30;;;;;;5067183;28;20204;-64
2022/08/19 03:54:28;;;;;;;13.02;8.13;;;17.90;98.30;;;;;;5016309;28;21283;-64
2022/08/19 03:56:57;;;;;;;10.45;8.30;;;17.90;98.80;;;;;;5069175;28;20247;-64
2022/08/19 03:59:26;;;;;;;10.20;7.85;;;18.00;99.90;;;;;;5048056;28;20790;-64
2022/08/19 04:01:53;;;;;;;9.88;8.02;;;17.60;99.80;;;;;;5050912;28;20587;-63
2022/08/19 04:04:21;;;;;;;14.40;8.10;;;17.70;99.90;;;;;;5052299;28;20923;-63
2022/08/19 04:06:48;;;;;;;10.93;8.55;;;17.80;98.90;;;;;;5061821;28;20294;-63
2022/08/19 04:09:16;;;;;;;9.25;7.65;;;17.80;99.50;;;;;;5037571;28;20580;-64
2022/08/19 04:11:46;;;;;;;11.63;7.55;;;17.80;99.90;;;;;;5055173;28;20224;-64
2022/08/19 04:14:16;;;;;;;10.43;7.82;;;17.80;99.70;;;;;;5059459;28;20278;-65
2022/08/19 04:16:44;;;;;;;10.60;7.85;;;17.90;99.90;;;;;;5056503;28;20200;-64
2022/08/19 04:19:11;;;;;;;11.15;8.48;;;17.50;99.90;;;;;;5061527;28;20236;-64
2022/08/19 04:21:38;;;;;;;9.57;8.00;;;17.30;99.90;;;;;;5067650;28;20199;-64
2022/08/19 04:24:06;;;;;;;14.43;9.07;;;17.60;99.70;;;;;;5043888;28;20200;-64
2022/08/19 04:26:36;;;;;;;9.77;8.15;;;17.50;99.90;;;;;;5046987;28;20234;-65
2022/08/19 04:29:09;;;;;;;9.75;8.52;;;17.70;99.90;;;;;;5051170;28;20208;-65
2022/08/19 04:31:35;;;;;;;11.95;8.50;;;17.20;99.90;;;;;;5039636;28;20224;-64
2022/08/19 04:34:05;;;;;;;8.98;7.82;;;17.50;99.90;;;;;;5054311;28;20208;-64
2022/08/19 04:36:35;;;;;;;10.20;8.20;;;17.50;99.90;;;;;;5048180;28;20200;-63
2022/08/19 04:39:05;;;;;;;11.02;8.35;;;17.30;99.90;;;;;;5043785;28;20227;-62
2022/08/19 04:44:18;;;;;;;12.52;7.90;;;17.50;99.90;;;;;;5066041;28;20207;-64
2022/08/19 04:46:45;;;;;;;11.15;8.55;;;17.70;99.90;;;;;;5048374;28;20224;-63
2022/08/19 04:49:12;;;;;;;11.70;8.45;;;17.10;99.90;;;;;;5052788;28;20861;-63
2022/08/19 04:51:42;;;;;;;11.73;8.45;;;17.40;99.00;;;;;;5052375;28;20196;-63
2022/08/19 05:04:25;;;;;;;10.45;8.50;;;17.10;99.90;;;;;;5042414;28;20215;-63
2022/08/19 05:06:53;;;;;;;11.70;8.43;;;18.80;99.90;;;;;;5012959;28;20747;-63
2022/08/19 05:09:21;;;;;;;12.77;8.68;;;17.50;99.70;;;;;;5063431;28;20557;-63
2022/08/19 05:11:50;;;;;;;12.80;8.57;;;;;;;;;;5021576;28;20582;-64
2022/08/19 05:14:17;;;;;;;9.38;8.02;;;17.40;98.80;;;;;;5050548;28;20698;-63
2022/08/19 05:16:44;;;;;;;10.40;8.50;;;17.80;99.90;;;;;;5052222;28;20197;-63
2022/08/19 05:24:41;;;;;;;11.70;8.60;;;;;;;;;;5025120;28;20211;-63
2022/08/19 05:27:08;;;;;;;11.90;9.10;;;17.60;95.90;;;;;;5055995;28;20215;-62
2022/08/19 05:31:24;;;;;;;12.45;8.88;;;17.60;95.90;;;;;;5009126;27;1926380;-62
2022/08/19 05:37:30;;;;;;;15.63;8.88;;;17.50;96.80;;;;;;5116511;27;20562;-62
2022/08/19 05:39:57;;;;;;;10.13;8.10;;;17.50;97.50;;;;;;5089926;27;20225;-62
2022/08/19 05:42:30;;;;;;;13.20;8.93;;;17.50;97.90;;;;;;5093831;27;20217;-64
2022/08/19 05:44:57;;;;;;;14.65;9.48;;;17.60;98.70;;;;;;5072878;27;20206;-63
2022/08/19 05:47:23;;;;;;;14.68;8.70;;;17.60;99.90;;;;;;5123848;27;20204;-62
2022/08/19 05:49:51;;;;;;;13.48;9.43;;;17.60;99.80;;;;;;5104637;27;20198;-62
2022/08/19 05:52:18;;;;;;;10.05;8.40;;;17.60;99.20;;;;;;5129951;27;20266;-62
2022/08/19 05:54:50;;;;;;;10.50;8.77;;;17.70;99.90;;;;;;5095348;27;20214;-63
2022/08/19 05:57:17;;;;;;;11.15;8.90;;;17.70;99.10;;;;;;5094603;27;20230;-62
2022/08/19 05:59:45;;;;;;;10.20;8.63;;;17.70;99.40;;;;;;5089012;27;20222;-63
2022/08/19 06:02:13;;;;;;;11.13;8.95;;;17.70;98.70;;;;;;5113169;27;20214;-63
2022/08/19 06:04:42;;;;;;;10.32;8.30;;;17.60;96.30;;;;;;5098681;27;20223;-63
2022/08/19 06:07:09;;;;;;;12.25;8.45;;;17.60;96.40;;;;;;5106514;27;20249;-62
2022/08/19 06:09:37;;;;;;;11.55;8.40;;;17.60;95.70;;;;;;5111311;27;22237;-63
2022/08/19 06:12:06;;;;;;;10.88;8.25;;;17.70;95.60;;;;;;5084312;27;23457;-63
2022/08/19 06:14:35;;;;;;;10.05;8.75;;;17.80;96.10;;;;;;5102847;27;20313;-62
2022/08/19 06:17:03;;;;;;;11.20;8.02;;;17.70;95.20;;;;;;5101173;27;20227;-63
2022/08/19 06:19:31;;;;;;;10.18;7.57;;;17.80;95.30;;;;;;5092702;27;20242;-63
2022/08/19 06:22:00;;;;;;;12.32;8.85;;;17.50;93.00;;;;;;5110877;27;20225;-63
2022/08/19 06:24:29;;;;;;;9.68;7.38;;;17.90;92.30;;;;;;5109338;27;20202;-63
2022/08/19 06:26:58;;;;;;;9.45;8.05;;;18.00;93.10;;;;;;5086221;27;20198;-63
2022/08/19 06:29:28;;;;;;;9.52;7.28;;;18.10;92.40;;;;;;5099672;27;20224;-63
2022/08/19 06:31:57;;;;;;;11.10;7.97;;;18.20;90.50;;;;;;5115090;27;20207;-64
2022/08/19 06:34:27;;;;;;;8.90;6.97;;;18.10;85.80;;;;;;5108078;27;20206;-64
2022/08/19 06:36:54;;;;;;;7.75;6.50;;;18.20;85.50;;;;;;5095410;27;20234;-64
2022/08/19 06:39:23;;;;;;;9.20;6.28;;;18.20;79.40;;;;;;5105897;27;20225;-64
2022/08/19 06:41:52;;;;;;;8.43;6.82;;;18.20;77.20;;;;;;5091662;27;20316;-64
2022/08/19 06:44:20;;;;;;;11.25;6.70;;;18.20;77.50;;;;;;5105633;27;20202;-65
2022/08/19 06:46:49;;;;;;;10.23;6.93;;;18.10;75.10;;;;;;5109661;27;20210;-65
2022/08/19 06:49:17;;;;;;;7.32;5.80;;;18.20;79.00;;;;;;5082802;27;20202;-65
2022/08/19 06:51:46;;;;;;;8.60;5.50;;;18.30;79.90;;;;;;5104427;27;20198;-65
2022/08/19 06:54:12;;;;;;;9.75;4.88;;;18.30;70.70;;;;;;5076378;27;20203;-65
2022/08/19 06:56:39;;;;;;;8.57;4.90;;;18.40;71.70;;;;;;5093229;27;20219;-65
2022/08/19 06:59:08;;;;;;;6.88;5.32;;;18.40;71.00;;;;;;5068631;27;20213;-65
2022/08/19 07:01:37;;;;;;;8.20;5.38;;;17.30;71.00;;;;;;5096134;27;20200;-64
2022/08/19 07:04:06;;;;;;;10.18;5.65;;;18.50;70.70;;;;;;5090314;27;20744;-65
2022/08/19 07:06:33;;;;;;;10.00;5.00;;;18.60;70.60;;;;;;5098859;27;20206;-65
2022/08/19 07:08:59;;;;;;;6.43;4.72;;;18.50;69.10;;;;;;5085024;27;20204;-64
2022/08/19 07:11:27;;;;;;;5.93;4.20;;;18.50;68.50;;;;;;5092508;27;20219;-65
2022/08/19 07:13:54;;;;;;;5.88;4.20;;;18.60;65.90;;;;;;5065108;22;20240;-64
2022/08/19 07:16:21;;;;;;;7.40;4.13;;;18.70;64.70;;;;;;5001489;28;20243;-64
2022/08/19 07:18:48;;;;;;;3.80;3.45;;;18.50;61.00;;;;;;5003034;28;20790;-64
2022/08/19 07:21:19;;;;;;;5.00;3.28;;;18.90;63.20;;;;;;4993322;28;20237;-65
2022/08/19 07:23:46;;;;;;;3.67;3.15;;;18.80;60.20;;;;;;4998759;28;20229;-65
2022/08/19 07:26:16;;;;;;;5.45;3.35;;;18.80;58.20;;;;;;4980650;28;21042;-64
2022/08/19 07:28:44;;;;;;;12.50;4.30;;;18.80;59.00;;;;;;4964162;28;20951;-64
2022/08/19 07:31:12;;;;;;;6.80;4.10;;;18.80;58.70;;;;;;4977336;28;20806;-64
2022/08/19 07:33:39;;;;;;;5.05;4.30;;;19.00;62.80;;;;;;4984411;28;21094;-64
2022/08/19 07:36:10;;;;;;;7.57;4.97;;;18.90;62.00;;;;;;4991495;28;20900;-63
2022/08/19 07:38:40;;;;;;;5.43;4.63;;;19.10;62.10;;;;;;5004949;28;20213;-63
2022/08/19 07:41:08;;;;;;;4.90;4.20;;;19.00;60.20;;;;;;4979308;28;20206;-62
2022/08/19 07:43:35;;;;;;;6.82;4.07;;;19.10;67.20;;;;;;4979478;28;20206;-63
2022/08/19 07:49:24;;;;;;;7.68;4.72;;;19.10;51.20;;;;;;4993483;28;20279;-63
2022/08/19 07:51:54;;;;;;;6.85;4.85;;;19.00;50.70;;;;;;4982646;28;20226;-63
2022/08/19 07:54:24;;;;;;;5.05;4.55;;;19.00;51.50;;;;;;5003656;28;20202;-62
2022/08/19 07:56:52;;;;;;;6.03;4.50;;;19.10;50.70;;;;;;4980056;28;20241;-63
2022/08/19 07:59:20;;;;;;;4.28;3.88;;;20.20;52.00;;;;;;4967979;28;20226;-64
2022/08/19 08:01:47;;;;;;;4.53;3.80;;;18.80;47.60;;;;;;4981231;28;20202;-64
2022/08/19 08:09:46;;;;;;;4.38;3.97;;;19.20;37.00;;;;;;4994348;28;20575;-64
2022/08/19 08:12:17;;;;;;;5.78;4.40;;;19.20;38.20;;;;;;4991748;28;20210;-64
2022/08/19 08:14:47;;;;;;;6.38;4.80;;;19.20;39.50;;;;;;4964776;28;20602;-64
2022/08/19 08:17:15;;;;;;;6.95;3.92;;;19.20;38.50;;;;;;4977190;28;21576;-63
2022/08/19 08:19:42;;;;;;;6.18;4.30;;;19.30;28.60;;;;;;4988547;28;20222;-64
2022/08/19 08:23:22;;;;;;;6.78;4.78;;;19.40;25.90;;;;;;4990383;28;20222;-64
2022/08/19 08:25:02;;;;;;;6.30;4.38;;;19.30;18.40;;;;;;4989758;28;20365;-64
2022/08/19 08:27:30;;;;;;;4.80;3.88;;;19.40;24.80;;;;;;4984446;28;20218;-63
2022/08/19 08:29:58;;;;;;;7.60;3.88;;;19.20;20.90;;;;;;4965764;28;20879;-64
2022/08/19 08:32:24;;;;;;;3.92;3.45;;;19.10;22.00;;;;;;5002775;28;20198;-64
2022/08/19 08:34:53;;;;;;;3.35;2.97;;;19.40;24.50;;;;;;4960512;28;20738;-64
2022/08/19 08:37:21;;;;;;;4.03;3.28;;;19.20;23.00;;;;;;4994707;28;20229;-64
2022/08/19 08:39:49;;;;;;;4.15;3.17;;;19.40;21.80;;;;;;4993916;28;20809;-64
2022/08/19 08:42:22;;;;;;;4.95;3.38;;;19.70;14.50;;;;;;4987760;28;20209;-64
2022/08/19 08:44:54;;;;;;;4.75;3.03;;;19.50;13.20;;;;;;4979554;28;20202;-64
2022/08/19 08:47:22;;;;;;;3.20;2.90;;;19.50;10.90;;;;;;4970121;28;20214;-63
2022/08/19 08:49:52;;;;;;;3.63;3.00;;;19.60;12.50;;;;;;4981383;28;20218;-63
2022/08/19 08:52:23;;;;;;;4.07;2.67;;;19.60;13.60;;;;;;5000451;28;20210;-62
2022/08/19 08:54:53;;;;;;;3.08;2.47;;;19.60;12.90;;;;;;4995825;28;20293;-63
2022/08/19 08:57:28;;;;;;;2.40;2.20;;;19.90;6.90;;;;;;4988851;28;20591;-63
2022/08/19 08:59:58;;;;;;;5.05;2.22;;;20.00;1.00;;;;;;4980302;28;20222;-64
2022/08/19 09:02:26;;;;;;;2.90;2.13;;;19.80;1.00;;;;;;4968609;28;20218;-64
2022/08/19 09:04:55;;;;;;;3.05;2.17;;;19.80;1.00;;;;;;4978670;28;20819;-64
2022/08/19 09:07:31;;;;;;;2.80;2.00;;;19.80;1.00;;;;;;4996679;28;20240;-64
2022/08/19 09:10:16;;;;;;;2.00;1.80;;;19.80;1.00;;;;;;4993336;28;20206;-64
2022/08/19 09:12:50;;;;;;;2.50;1.90;;;19.90;1.00;;;;;;4988928;28;20252;-64
2022/08/19 09:15:23;;;;;;;6.28;2.15;;;19.90;1.00;;;;;;4988589;28;20232;-64
2022/08/19 09:17:50;;;;;;;2.72;1.65;;;19.90;1.00;;;;;;4976763;28;20845;-63
2022/08/19 09:20:21;;;;;;;2.13;1.40;;;19.70;1.00;;;;;;4978099;28;20944;-64
2022/08/19 09:22:49;;;;;;;2.80;1.50;;;20.00;1.00;;;;;;5005654;28;20198;-64
2022/08/19 09:25:21;;;;;;;2.28;1.65;;;20.00;19.50;;;;;;4988340;28;20214;-64
2022/08/19 09:27:51;;;;;;;2.22;2.00;;;20.00;99.90;;;;;;4980952;28;20297;-64
2022/08/19 09:30:22;;;;;;;3.20;1.90;;;20.00;1.00;;;;;;4981219;28;20226;-65
2022/08/19 09:32:52;;;;;;;2.25;1.63;;;20.00;1.00;;;;;;4969021;28;20654;-64
2022/08/19 09:35:20;;;;;;;4.00;1.70;;;20.00;1.00;;;;;;4971751;28;20222;-64
2022/08/19 09:37:47;;;;;;;2.47;1.70;;;20.20;99.90;;;;;;4971530;28;20229;-64
2022/08/19 09:40:14;;;;;;;2.53;1.60;;;20.30;1.00;;;;;;4986294;28;20245;-65
2022/08/19 09:42:43;;;;;;;2.85;1.60;;;20.30;99.90;;;;;;4990749;28;20689;-64
2022/08/19 09:45:11;;;;;;;1.90;1.58;;;20.40;1.00;;;;;;4985311;28;20214;-64
2022/08/19 09:47:38;;;;;;;3.53;2.00;;;21.20;1.00;;;;;;4979510;28;20233;-64
2022/08/19 09:50:07;;;;;;;1.30;1.20;;;20.50;99.90;;;;;;4999421;28;20210;-64
2022/08/19 09:52:36;;;;;;;1.77;1.58;;;20.60;99.90;;;;;;4986143;28;21380;-65
2022/08/19 09:55:04;;;;;;;2.03;1.40;;;20.60;99.90;;;;;;4971408;28;20364;-65
2022/08/19 09:57:30;;;;;;;2.55;1.70;;;20.60;99.90;;;;;;4987227;28;20237;-64
2022/08/19 09:59:58;;;;;;;3.70;1.77;;;20.70;1.00;;;;;;4972895;28;20210;-64
2022/08/19 10:02:26;;;;;;;2.38;1.38;;;20.80;99.90;;;;;;4976656;28;20233;-64
2022/08/19 10:07:37;;;;;;;3.53;1.33;;;21.00;1.00;;;;;;4966796;28;20283;-64
2022/08/19 10:10:05;;;;;;;2.58;1.60;;;21.20;1.00;;;;;;4993768;28;20638;-64
2022/08/19 10:12:33;;;;;;;2.80;1.35;;;21.10;1.00;;;;;;4990634;28;20230;-64
2022/08/19 10:15:00;;;;;;;1.50;1.40;;;21.30;1.00;;;;;;4978240;28;20221;-64
2022/08/19 10:17:29;;;;;;;2.25;1.73;;;;;;;;;;4986641;28;20238;-64
2022/08/19 10:19:56;;;;;;;3.45;1.88;;;21.20;1.00;;;;;;4962299;28;20210;-63
2022/08/19 10:22:23;;;;;;;4.45;2.00;;;;;;;;;;4976167;28;20308;-64
2022/08/19 10:24:51;;;;;;;2.08;1.88;;;21.50;99.90;;;;;;4977535;28;20233;-64
2022/08/19 10:27:18;;;;;;;2.58;1.73;;;21.30;99.90;;;;;;4990996;28;20233;-63
2022/08/19 10:29:45;;;;;;;3.75;1.50;;;21.60;99.90;;;;;;4986712;28;20234;-65
2022/08/19 10:32:12;;;;;;;4.18;1.70;;;21.60;37.50;;;;;;4989794;28;20217;-64
2022/08/19 10:34:40;;;;;;;3.75;1.80;;;21.40;1.00;;;;;;4982896;28;20229;-63
2022/08/19 10:37:07;;;;;;;2.88;1.80;;;21.50;1.00;;;;;;4989770;28;20241;-65
2022/08/19 10:39:36;;;;;;;5.45;1.55;;;21.60;1.00;;;;;;4987268;28;20225;-64
2022/08/19 10:42:06;;;;;;;1.52;1.38;;;21.80;1.00;;;;;;4994664;28;20206;-64
2022/08/19 10:44:35;;;;;;;2.38;1.67;;;21.80;1.00;;;;;;5000333;28;20210;-65
2022/08/19 10:47:02;;;;;;;3.28;1.55;;;21.90;1.00;;;;;;4979185;28;20694;-64
2022/08/19 10:49:29;;;;;;;2.50;1.30;;;21.90;1.00;;;;;;4983421;28;20198;-64
2022/08/19 10:57:28;;;;;;;4.20;1.20;;;21.90;1.00;;;;;;4975137;28;20237;-64
2022/08/19 10:59:56;;;;;;;2.42;1.30;;;21.90;1.00;;;;;;4994056;28;20228;-65
2022/08/19 11:02:23;;;;;;;4.82;1.27;;;21.80;1.00;;;;;;4987809;28;20710;-64
2022/08/19 11:04:51;;;;;;;1.52;1.30;;;22.10;1.00;;;;;;4988481;28;20218;-63
2022/08/19 11:07:20;;;;;;;1.80;1.23;;;21.90;1.00;;;;;;5000376;28;20320;-63
2022/08/19 11:09:47;;;;;;;2.58;1.40;;;21.90;1.00;;;;;;4987243;28;20217;-64
2022/08/19 11:12:15;;;;;;;1.33;1.00;;;22.00;1.00;;;;;;4986172;28;20230;-63
2022/08/19 11:14:42;;;;;;;1.00;1.00;;;22.00;99.90;;;;;;5000353;28;20202;-64
2022/08/19 11:17:09;;;;;;;1.23;1.10;;;22.00;1.00;;;;;;4990523;28;20281;-64
2022/08/19 11:19:36;;;;;;;1.58;1.48;;;22.00;1.00;;;;;;5008614;28;20213;-64
2022/08/19 11:22:03;;;;;;;1.67;1.27;;;22.00;1.00;;;;;;4979985;28;20678;-64
2022/08/19 11:24:32;;;;;;;1.20;1.10;;;21.90;1.00;;;;;;4994675;28;20206;-61
2022/08/19 11:27:04;;;;;;;2.08;1.00;;;21.70;1.00;;;;;;4987127;28;20286;-64
2022/08/19 11:29:32;;;;;;;2.97;1.40;;;21.90;1.00;;;;;;4993379;28;20322;-64
2022/08/19 11:32:01;;;;;;;1.27;1.17;;;21.90;1.00;;;;;;4984554;28;20914;-62
2022/08/19 11:34:29;;;;;;;1.38;1.27;;;22.10;1.00;;;;;;5001911;28;20918;-65
2022/08/19 11:36:57;;;;;;;1.75;1.42;;;22.30;1.00;;;;;;4973934;28;20225;-63
2022/08/19 11:39:25;;;;;;;1.92;1.35;;;22.40;1.00;;;;;;4986998;28;20894;-62
2022/08/19 11:41:53;;;;;;;1.50;1.40;;;19.00;1.00;;;;;;4989313;28;20226;-62
2022/08/19 11:44:20;;;;;;;2.15;1.27;;;22.00;1.00;;;;;;4971655;28;20751;-65
2022/08/19 11:46:47;;;;;;;1.55;1.25;;;22.20;1.00;;;;;;5000384;28;20224;-62
2022/08/19 11:49:15;;;;;;;1.45;1.35;;;22.10;1.00;;;;;;4982796;28;20213;-62
2022/08/19 11:53:59;;;;;;;1.65;1.45;;;22.10;1.00;;;;;;5079332;27;20553;-63
2022/08/19 11:56:27;;;;;;;1.63;1.30;;;22.10;1.00;;;;;;5068596;28;20196;-63
2022/08/19 11:58:54;;;;;;;2.47;1.30;;;22.10;1.00;;;;;;5057665;27;20720;-63
2022/08/19 12:01:23;;;;;;;2.50;1.30;;;22.20;1.00;;;;;;5052712;27;20204;-63
2022/08/19 12:03:52;;;;;;;1.48;1.35;;;22.40;1.00;;;;;;5066049;27;20510;-64
2022/08/19 12:06:25;;;;;;;5.40;1.70;;;22.40;1.00;;;;;;5070096;27;20219;-64
2022/08/19 12:08:53;;;;;;;2.28;1.52;;;22.60;1.00;;;;;;5069207;28;20383;-63
2022/08/19 12:11:22;;;;;;;1.42;1.33;;;22.60;1.00;;;;;;5067448;28;21236;-64
2022/08/19 12:15:45;;;;;;;3.08;1.33;;;22.50;1.00;;;;;;5061091;27;20991;-63
2022/08/19 12:18:13;;;;;;;2.45;1.00;;;;;;;;;;5067237;28;20203;-63
2022/08/19 12:20:42;;;;;;;1.58;1.13;;;22.50;1.00;;;;;;5075047;28;21972;-63
2022/08/19 12:29:53;;;;;;;3.35;1.08;;;23.00;99.90;;;;;;5058295;28;20210;-62
2022/08/19 12:32:21;;;;;;;8.65;1.33;;;23.00;99.90;;;;;;5062632;28;20226;-62
2022/08/19 12:34:48;;;;;;;4.60;1.60;;;23.00;99.90;;;;;;5062183;28;20223;-63
2022/08/19 12:37:16;;;;;;;0.82;0.82;;;23.10;99.90;;;;;;5072734;28;20225;-63
2022/08/19 12:39:44;;;;;;;4.00;1.20;;;23.20;99.90;;;;;;5060727;28;20654;-62
2022/08/19 12:42:11;;;;;;;1.60;1.50;;;;;;;;;;5063930;28;20227;-64
2022/08/19 12:44:40;;;;;;;1.88;1.65;;;23.40;48.00;;;;;;5068852;28;20211;-62
2022/08/19 12:47:08;;;;;;;1.73;1.02;;;23.40;73.70;;;;;;5060147;28;21085;-64
2022/08/19 12:49:36;;;;;;;1.35;1.25;;;23.40;25.10;;;;;;5073621;28;20208;-63
2022/08/19 12:52:04;;;;;;;1.17;0.98;;;23.40;38.00;;;;;;5065022;28;20295;-63
2022/08/19 12:54:31;;;;;;;1.67;1.10;;;23.40;20.20;;;;;;5051786;28;20243;-63
2022/08/19 12:56:59;;;;;;;3.47;1.17;;;23.40;12.90;;;;;;5079310;28;20191;-63
2022/08/19 12:59:26;;;;;;;2.28;1.20;;;23.50;5.70;;;;;;5066642;28;20559;-64
2022/08/19 13:01:53;;;;;;;3.63;1.10;;;23.60;21.90;;;;;;5065281;28;20207;-64
2022/08/19 13:04:20;;;;;;;3.72;1.17;;;23.60;27.80;;;;;;5065048;28;20207;-63
2022/08/19 13:06:48;;;;;;;1.52;1.10;;;23.60;10.60;;;;;;5054997;28;20323;-64
2022/08/19 13:09:16;;;;;;;1.90;0.98;;;23.70;9.70;;;;;;5077258;28;20216;-65
2022/08/19 13:11:44;;;;;;;1.30;1.20;;;23.70;1.00;;;;;;5059219;28;20224;-65
2022/08/19 13:14:11;;;;;;;2.22;1.33;;;23.70;15.20;;;;;;5062081;28;20232;-64
2022/08/19 13:16:38;;;;;;;3.10;1.40;;;24.10;17.90;;;;;;5063549;28;20273;-65
2022/08/19 13:19:05;;;;;;;3.17;1.60;;;24.00;1.00;;;;;;5073582;28;20219;-64
2022/08/19 13:21:32;;;;;;;1.80;1.42;;;23.80;50.40;;;;;;5065453;28;20223;-63
2022/08/19 13:24:00;;;;;;;1.25;1.15;;;23.90;4.50;;;;;;5067370;28;20220;-62
2022/08/19 13:26:27;;;;;;;2.88;1.20;;;23.90;24.00;;;;;;5043653;28;20200;-62
2022/08/19 13:34:31;;;;;;;1.90;1.30;;;24.10;98.50;;;;;;5054454;28;20238;-64
2022/08/19 13:36:59;;;;;;;2.38;1.25;;;24.10;99.90;;;;;;5051947;28;20330;-64
2022/08/19 13:39:27;;;;;;;1.98;1.35;;;24.10;99.90;;;;;;5048671;28;20197;-63
2022/08/19 13:41:54;;;;;;;1.52;1.30;;;24.00;99.90;;;;;;5034554;28;20383;-64
2022/08/19 13:44:21;;;;;;;1.50;1.40;;;23.90;99.90;;;;;;5052478;28;20685;-61
2022/08/19 13:46:52;;;;;;;2.13;1.23;;;24.00;99.90;;;;;;5063921;28;20224;-62
2022/08/19 13:49:20;;;;;;;2.03;1.48;;;20.10;99.90;;;;;;5021321;28;20220;-62
2022/08/19 13:51:47;;;;;;;1.80;1.33;;;24.20;99.90;;;;;;5059392;28;20684;-62
2022/08/19 13:54:14;;;;;;;3.08;1.63;;;24.00;99.90;;;;;;5036768;28;20227;-63
2022/08/19 13:56:44;;;;;;;1.52;1.20;;;24.00;99.90;;;;;;5039812;28;20223;-64